sensor_id;sensor_type;location;lat;lon;timestamp;pressure;altitude;pressure_sealevel;temperature;humidity
7760;BME280;3924;48.830;9.262;2022-11-25T00:01:11;98551.38;;;3.93;85.55
7760;BME280;3924;48.830;9.262;2022-11-25T00:03:39;98555.13;;;3.92;85.62
7760;BME280;3924;48.830;9.262;2022-11-25T00:06:14;98554.06;;;3.93;85.89
7760;BME280;3924;48.830;9.262;2022-11-25T00:08:42;98553.50;;;3.91;85.52
7760;BME280;3924;48.830;9.262;2022-11-25T00:11:10;98554.00;;;3.88;85.56
7760;BME280;3924;48.830;9.262;2022-11-25T00:13:38;98541.56;;;3.82;85.36
7760;BME280;3924;48.830;9.262;2022-11-25T00:16:16;98545.25;;;3.76;85.52
7760;BME280;3924;48.830;9.262;2022-11-25T00:18:43;98540.66;;;3.71;85.85
7760;BME280;3924;48.830;9.262;2022-11-25T00:21:13;98545.69;;;3.68;86.07
7760;BME280;3924;48.830;9.262;2022-11-25T00:23:39;98539.75;;;3.66;86.01
7760;BME280;3924;48.830;9.262;2022-11-25T00:26:08;98540.75;;;3.60;85.97
7760;BME280;3924;48.830;9.262;2022-11-25T00:28:35;98538.06;;;3.60;86.10
7760;BME280;3924;48.830;9.262;2022-11-25T00:31:10;98541.31;;;3.62;86.06
7760;BME280;3924;48.830;9.262;2022-11-25T00:33:38;98542.38;;;3.61;86.16
7760;BME280;3924;48.830;9.262;2022-11-25T00:36:06;98538.56;;;3.56;85.83
7760;BME280;3924;48.830;9.262;2022-11-25T00:38:32;98545.47;;;3.52;86.33
7760;BME280;3924;48.830;9.262;2022-11-25T00:40:59;98550.84;;;3.52;86.02
7760;BME280;3924;48.830;9.262;2022-11-25T00:43:44;98548.41;;;3.51;85.92
7760;BME280;3924;48.830;9.262;2022-11-25T00:46:29;98543.53;;;3.48;85.95
7760;BME280;3924;48.830;9.262;2022-11-25T00:48:55;98545.16;;;3.49;85.90
7760;BME280;3924;48.830;9.262;2022-11-25T00:51:22;98546.22;;;3.48;86.16
7760;BME280;3924;48.830;9.262;2022-11-25T00:53:48;98543.28;;;3.49;86.26
7760;BME280;3924;48.830;9.262;2022-11-25T00:56:22;98547.81;;;3.49;85.99
7760;BME280;3924;48.830;9.262;2022-11-25T00:58:49;98542.81;;;3.52;86.07
7760;BME280;3924;48.830;9.262;2022-11-25T01:01:15;98543.88;;;3.51;86.09
7760;BME280;3924;48.830;9.262;2022-11-25T01:03:42;98547.09;;;3.53;86.21
7760;BME280;3924;48.830;9.262;2022-11-25T01:06:09;98547.66;;;3.55;86.10
7760;BME280;3924;48.830;9.262;2022-11-25T01:08:37;98551.47;;;3.60;86.34
7760;BME280;3924;48.830;9.262;2022-11-25T01:11:10;98552.84;;;3.62;86.16
7760;BME280;3924;48.830;9.262;2022-11-25T01:13:37;98564.38;;;3.63;86.19
7760;BME280;3924;48.830;9.262;2022-11-25T01:16:05;98561.13;;;3.61;85.95
7760;BME280;3924;48.830;9.262;2022-11-25T01:18:33;98560.88;;;3.62;86.07
7760;BME280;3924;48.830;9.262;2022-11-25T01:21:06;98569.16;;;3.61;86.00
7760;BME280;3924;48.830;9.262;2022-11-25T01:23:34;98564.16;;;3.64;85.95
7760;BME280;3924;48.830;9.262;2022-11-25T01:26:10;98557.94;;;3.64;86.00
7760;BME280;3924;48.830;9.262;2022-11-25T01:28:38;98554.22;;;3.65;85.77
7760;BME280;3924;48.830;9.262;2022-11-25T01:31:15;98557.94;;;3.64;86.32
7760;BME280;3924;48.830;9.262;2022-11-25T01:33:42;98547.22;;;3.64;86.11
7760;BME280;3924;48.830;9.262;2022-11-25T01:36:16;98542.69;;;3.64;86.26
7760;BME280;3924;48.830;9.262;2022-11-25T01:38:44;98533.59;;;3.65;86.19
7760;BME280;3924;48.830;9.262;2022-11-25T01:41:12;98542.44;;;3.66;86.28
7760;BME280;3924;48.830;9.262;2022-11-25T01:43:40;98541.38;;;3.67;86.36
7760;BME280;3924;48.830;9.262;2022-11-25T01:46:14;98548.09;;;3.69;86.32
7760;BME280;3924;48.830;9.262;2022-11-25T01:48:51;98550.31;;;3.72;86.27
7760;BME280;3924;48.830;9.262;2022-11-25T01:51:24;98550.59;;;3.76;86.11
7760;BME280;3924;48.830;9.262;2022-11-25T01:53:53;98546.38;;;3.80;85.95
7760;BME280;3924;48.830;9.262;2022-11-25T01:56:20;98550.44;;;3.82;86.14
7760;BME280;3924;48.830;9.262;2022-11-25T01:58:48;98539.41;;;3.79;85.82
7760;BME280;3924;48.830;9.262;2022-11-25T02:01:16;98547.19;;;3.80;86.14
7760;BME280;3924;48.830;9.262;2022-11-25T02:03:45;98541.84;;;3.80;86.27
7760;BME280;3924;48.830;9.262;2022-11-25T02:06:24;98550.44;;;3.82;86.40
7760;BME280;3924;48.830;9.262;2022-11-25T02:08:54;98549.94;;;3.86;86.46
7760;BME280;3924;48.830;9.262;2022-11-25T02:11:24;98547.81;;;3.88;86.22
7760;BME280;3924;48.830;9.262;2022-11-25T02:13:52;98558.88;;;3.91;86.40
7760;BME280;3924;48.830;9.262;2022-11-25T02:16:18;98562.03;;;3.88;86.07
7760;BME280;3924;48.830;9.262;2022-11-25T02:18:45;98558.81;;;3.86;86.39
7760;BME280;3924;48.830;9.262;2022-11-25T02:21:14;98554.50;;;3.85;86.40
7760;BME280;3924;48.830;9.262;2022-11-25T02:23:57;98557.66;;;3.82;86.58
7760;BME280;3924;48.830;9.262;2022-11-25T02:26:27;98549.88;;;3.80;86.40
7760;BME280;3924;48.830;9.262;2022-11-25T02:28:54;98551.75;;;3.80;86.58
7760;BME280;3924;48.830;9.262;2022-11-25T02:31:21;98546.88;;;3.77;86.47
7760;BME280;3924;48.830;9.262;2022-11-25T02:33:47;98547.66;;;3.77;86.12
7760;BME280;3924;48.830;9.262;2022-11-25T02:36:19;98545.25;;;3.76;86.63
7760;BME280;3924;48.830;9.262;2022-11-25T02:38:52;98537.72;;;3.73;86.46
7760;BME280;3924;48.830;9.262;2022-11-25T02:41:48;98541.69;;;3.70;86.18
7760;BME280;3924;48.830;9.262;2022-11-25T02:44:16;98558.03;;;3.69;86.17
7760;BME280;3924;48.830;9.262;2022-11-25T02:46:42;98552.41;;;3.70;86.58
7760;BME280;3924;48.830;9.262;2022-11-25T02:49:09;98544.94;;;3.72;86.55
7760;BME280;3924;48.830;9.262;2022-11-25T02:51:38;98535.03;;;3.73;86.40
7760;BME280;3924;48.830;9.262;2022-11-25T02:54:05;98536.66;;;3.74;86.79
7760;BME280;3924;48.830;9.262;2022-11-25T02:56:33;98535.34;;;3.76;86.66
7760;BME280;3924;48.830;9.262;2022-11-25T02:59:00;98539.41;;;3.79;86.66
7760;BME280;3924;48.830;9.262;2022-11-25T03:01:28;98534.03;;;3.79;86.29
7760;BME280;3924;48.830;9.262;2022-11-25T03:03:57;98534.03;;;3.79;86.47
7760;BME280;3924;48.830;9.262;2022-11-25T03:06:23;98537.78;;;3.78;86.37
7760;BME280;3924;48.830;9.262;2022-11-25T03:08:50;98536.94;;;3.77;86.82
7760;BME280;3924;48.830;9.262;2022-11-25T03:11:16;98528.06;;;3.72;86.63
7760;BME280;3924;48.830;9.262;2022-11-25T03:13:43;98526.44;;;3.71;86.53
7760;BME280;3924;48.830;9.262;2022-11-25T03:16:09;98528.53;;;3.69;86.62
7760;BME280;3924;48.830;9.262;2022-11-25T03:18:36;98526.38;;;3.66;86.25
7760;BME280;3924;48.830;9.262;2022-11-25T03:21:03;98528.22;;;3.65;86.46
7760;BME280;3924;48.830;9.262;2022-11-25T03:23:29;98528.72;;;3.62;86.67
7760;BME280;3924;48.830;9.262;2022-11-25T03:25:56;98533.53;;;3.60;86.64
7760;BME280;3924;48.830;9.262;2022-11-25T03:28:22;98521.66;;;3.56;86.61
7760;BME280;3924;48.830;9.262;2022-11-25T03:30:49;98525.66;;;3.53;86.53
7760;BME280;3924;48.830;9.262;2022-11-25T03:33:15;98517.25;;;3.45;86.55
7760;BME280;3924;48.830;9.262;2022-11-25T03:35:42;98521.22;;;3.42;86.71
7760;BME280;3924;48.830;9.262;2022-11-25T03:38:08;98517.25;;;3.45;86.88
7760;BME280;3924;48.830;9.262;2022-11-25T03:40:35;98517.53;;;3.48;87.06
7760;BME280;3924;48.830;9.262;2022-11-25T03:43:01;98514.59;;;3.50;86.55
7760;BME280;3924;48.830;9.262;2022-11-25T03:45:28;98516.81;;;3.53;87.13
7760;BME280;3924;48.830;9.262;2022-11-25T03:47:54;98515.75;;;3.54;87.00
7760;BME280;3924;48.830;9.262;2022-11-25T03:50:21;98520.63;;;3.57;87.03
7760;BME280;3924;48.830;9.262;2022-11-25T03:52:47;98521.09;;;3.54;87.24
7760;BME280;3924;48.830;9.262;2022-11-25T03:55:13;98515.44;;;3.50;86.97
7760;BME280;3924;48.830;9.262;2022-11-25T03:57:40;98519.97;;;3.50;86.92
7760;BME280;3924;48.830;9.262;2022-11-25T04:00:07;98517.00;;;3.46;87.01
7760;BME280;3924;48.830;9.262;2022-11-25T04:02:34;98520.19;;;3.43;87.16
7760;BME280;3924;48.830;9.262;2022-11-25T04:05:01;98523.88;;;3.42;86.80
7760;BME280;3924;48.830;9.262;2022-11-25T04:07:28;98520.66;;;3.40;87.23
7760;BME280;3924;48.830;9.262;2022-11-25T04:09:55;98519.28;;;3.38;87.42
7760;BME280;3924;48.830;9.262;2022-11-25T04:12:21;98521.72;;;3.39;87.04
7760;BME280;3924;48.830;9.262;2022-11-25T04:15:07;98513.34;;;3.36;87.53
7760;BME280;3924;48.830;9.262;2022-11-25T04:17:33;98509.03;;;3.35;87.06
7760;BME280;3924;48.830;9.262;2022-11-25T04:20:00;98518.16;;;3.34;87.13
7760;BME280;3924;48.830;9.262;2022-11-25T04:22:26;98512.22;;;3.32;87.27
7760;BME280;3924;48.830;9.262;2022-11-25T04:24:52;98510.91;;;3.34;87.52
7760;BME280;3924;48.830;9.262;2022-11-25T04:27:19;98508.25;;;3.34;87.50
7760;BME280;3924;48.830;9.262;2022-11-25T04:29:45;98514.16;;;3.36;87.12
7760;BME280;3924;48.830;9.262;2022-11-25T04:32:12;98505.63;;;3.39;87.31
7760;BME280;3924;48.830;9.262;2022-11-25T04:34:39;98511.56;;;3.41;87.15
7760;BME280;3924;48.830;9.262;2022-11-25T04:37:05;98510.50;;;3.42;87.24
7760;BME280;3924;48.830;9.262;2022-11-25T04:39:32;98510.44;;;3.37;87.30
7760;BME280;3924;48.830;9.262;2022-11-25T04:41:58;98518.69;;;3.36;87.02
7760;BME280;3924;48.830;9.262;2022-11-25T04:44:44;98515.47;;;3.34;87.19
7760;BME280;3924;48.830;9.262;2022-11-25T04:47:30;98499.31;;;3.28;87.01
7760;BME280;3924;48.830;9.262;2022-11-25T04:49:57;98504.94;;;3.27;87.21
7760;BME280;3924;48.830;9.262;2022-11-25T04:52:24;98501.69;;;3.25;87.29
7760;BME280;3924;48.830;9.262;2022-11-25T04:54:51;98502.81;;;3.29;87.53
7760;BME280;3924;48.830;9.262;2022-11-25T04:57:18;98505.25;;;3.31;87.41
7760;BME280;3924;48.830;9.262;2022-11-25T04:59:44;98510.63;;;3.31;87.33
7760;BME280;3924;48.830;9.262;2022-11-25T05:02:20;98509.31;;;3.33;87.15
7760;BME280;3924;48.830;9.262;2022-11-25T05:04:49;98510.91;;;3.34;87.46
7760;BME280;3924;48.830;9.262;2022-11-25T05:07:18;98524.31;;;3.34;87.02
7760;BME280;3924;48.830;9.262;2022-11-25T05:09:46;98524.56;;;3.33;87.30
7760;BME280;3924;48.830;9.262;2022-11-25T05:12:16;98530.09;;;3.26;87.46
7760;BME280;3924;48.830;9.262;2022-11-25T05:14:43;98523.59;;;3.22;87.11
7760;BME280;3924;48.830;9.262;2022-11-25T05:17:13;98528.16;;;3.21;87.07
7760;BME280;3924;48.830;9.262;2022-11-25T05:19:40;98538.56;;;3.18;87.06
7760;BME280;3924;48.830;9.262;2022-11-25T05:22:11;98538.81;;;3.16;87.24
7760;BME280;3924;48.830;9.262;2022-11-25T05:24:38;98528.81;;;3.12;87.27
7760;BME280;3924;48.830;9.262;2022-11-25T05:27:05;98526.06;;;3.07;87.39
7760;BME280;3924;48.830;9.262;2022-11-25T05:29:31;98527.38;;;3.04;86.91
7760;BME280;3924;48.830;9.262;2022-11-25T05:31:57;98522.81;;;3.05;87.44
7760;BME280;3924;48.830;9.262;2022-11-25T05:34:24;98521.19;;;3.04;87.31
7760;BME280;3924;48.830;9.262;2022-11-25T05:36:50;98515.25;;;3.01;87.65
7760;BME280;3924;48.830;9.262;2022-11-25T05:39:17;98525.41;;;2.99;87.34
7760;BME280;3924;48.830;9.262;2022-11-25T05:41:44;98529.47;;;3.02;87.39
7760;BME280;3924;48.830;9.262;2022-11-25T05:44:10;98522.72;;;2.99;87.73
7760;BME280;3924;48.830;9.262;2022-11-25T05:46:37;98530.75;;;2.99;87.61
7760;BME280;3924;48.830;9.262;2022-11-25T05:49:03;98539.84;;;2.98;87.52
7760;BME280;3924;48.830;9.262;2022-11-25T05:51:30;98548.38;;;2.95;87.32
7760;BME280;3924;48.830;9.262;2022-11-25T05:53:57;98546.53;;;2.96;87.66
7760;BME280;3924;48.830;9.262;2022-11-25T05:56:23;98546.19;;;2.92;87.67
7760;BME280;3924;48.830;9.262;2022-11-25T05:58:50;98556.88;;;2.92;87.56
7760;BME280;3924;48.830;9.262;2022-11-25T06:01:16;98560.63;;;2.91;87.62
7760;BME280;3924;48.830;9.262;2022-11-25T06:03:43;98565.97;;;2.91;87.62
7760;BME280;3924;48.830;9.262;2022-11-25T06:06:10;98564.91;;;2.92;87.69
7760;BME280;3924;48.830;9.262;2022-11-25T06:08:37;98568.09;;;2.89;87.90
7760;BME280;3924;48.830;9.262;2022-11-25T06:11:09;98561.03;;;2.83;87.66
7760;BME280;3924;48.830;9.262;2022-11-25T06:13:38;98562.91;;;2.83;87.64
7760;BME280;3924;48.830;9.262;2022-11-25T06:16:10;98569.31;;;2.82;87.97
7760;BME280;3924;48.830;9.262;2022-11-25T06:18:37;98559.31;;;2.77;87.71
7760;BME280;3924;48.830;9.262;2022-11-25T06:21:05;98571.63;;;2.78;87.80
7760;BME280;3924;48.830;9.262;2022-11-25T06:23:32;98570.59;;;2.79;87.79
7760;BME280;3924;48.830;9.262;2022-11-25T06:26:13;98576.44;;;2.76;87.77
7760;BME280;3924;48.830;9.262;2022-11-25T06:28:40;98574.81;;;2.75;88.07
7760;BME280;3924;48.830;9.262;2022-11-25T06:31:15;98574.81;;;2.75;88.22
7760;BME280;3924;48.830;9.262;2022-11-25T06:33:42;98581.78;;;2.76;88.39
7760;BME280;3924;48.830;9.262;2022-11-25T06:36:11;98579.34;;;2.74;87.77
7760;BME280;3924;48.830;9.262;2022-11-25T06:38:43;98588.19;;;2.75;88.05
7760;BME280;3924;48.830;9.262;2022-11-25T06:41:10;98598.91;;;2.75;88.18
7760;BME280;3924;48.830;9.262;2022-11-25T06:43:37;98585.97;;;2.72;87.86
7760;BME280;3924;48.830;9.262;2022-11-25T06:46:07;98589.47;;;2.72;87.93
7760;BME280;3924;48.830;9.262;2022-11-25T06:48:35;98590.28;;;2.73;88.07
7760;BME280;3924;48.830;9.262;2022-11-25T06:51:06;98584.94;;;2.73;87.76
7760;BME280;3924;48.830;9.262;2022-11-25T06:53:34;98586.88;;;2.78;88.15
7760;BME280;3924;48.830;9.262;2022-11-25T06:56:12;98591.44;;;2.77;87.95
7760;BME280;3924;48.830;9.262;2022-11-25T06:58:40;98594.66;;;2.79;87.56
7760;BME280;3924;48.830;9.262;2022-11-25T07:01:11;98595.72;;;2.78;87.83
7760;BME280;3924;48.830;9.262;2022-11-25T07:03:38;98595.72;;;2.78;87.77
7760;BME280;3924;48.830;9.262;2022-11-25T07:06:05;98607.00;;;2.80;87.97
7760;BME280;3924;48.830;9.262;2022-11-25T07:08:31;98608.97;;;2.85;87.96
7760;BME280;3924;48.830;9.262;2022-11-25T07:11:04;98617.56;;;2.87;87.81
7760;BME280;3924;48.830;9.262;2022-11-25T07:13:31;98611.50;;;2.91;88.24
7760;BME280;3924;48.830;9.262;2022-11-25T07:16:02;98605.72;;;2.99;88.06
7760;BME280;3924;48.830;9.262;2022-11-25T07:18:35;98605.91;;;3.10;87.84
7760;BME280;3924;48.830;9.262;2022-11-25T07:21:10;98609.47;;;3.15;87.72
7760;BME280;3924;48.830;9.262;2022-11-25T07:23:37;98612.88;;;3.27;87.40
7760;BME280;3924;48.830;9.262;2022-11-25T07:26:14;98600.38;;;3.33;87.58
7760;BME280;3924;48.830;9.262;2022-11-25T07:28:43;98609.06;;;3.40;87.44
7760;BME280;3924;48.830;9.262;2022-11-25T07:31:27;98615.00;;;3.42;87.43
7760;BME280;3924;48.830;9.262;2022-11-25T07:34:04;98611.59;;;3.47;87.56
7760;BME280;3924;48.830;9.262;2022-11-25T07:36:32;98615.16;;;3.52;87.26
7760;BME280;3924;48.830;9.262;2022-11-25T07:39:02;98609.88;;;3.58;87.29
7760;BME280;3924;48.830;9.262;2022-11-25T07:41:29;98622.06;;;3.65;87.42
7760;BME280;3924;48.830;9.262;2022-11-25T07:43:58;98627.25;;;3.72;87.23
7760;BME280;3924;48.830;9.262;2022-11-25T07:46:37;98633.47;;;3.77;87.28
7760;BME280;3924;48.830;9.262;2022-11-25T07:49:06;98636.56;;;3.86;87.17
7760;BME280;3924;48.830;9.262;2022-11-25T07:51:38;98642.56;;;3.93;87.26
7760;BME280;3924;48.830;9.262;2022-11-25T07:54:08;98636.22;;;3.99;87.07
7760;BME280;3924;48.830;9.262;2022-11-25T07:56:37;98636.22;;;3.99;86.56
7760;BME280;3924;48.830;9.262;2022-11-25T07:59:04;98640.44;;;3.95;86.81
7760;BME280;3924;48.830;9.262;2022-11-25T08:01:31;98642.00;;;3.91;86.95
7760;BME280;3924;48.830;9.262;2022-11-25T08:03:58;98646.78;;;3.89;87.00
7760;BME280;3924;48.830;9.262;2022-11-25T08:06:26;98650.03;;;3.91;87.34
7760;BME280;3924;48.830;9.262;2022-11-25T08:08:54;98648.91;;;3.87;86.70
7760;BME280;3924;48.830;9.262;2022-11-25T08:11:27;98648.09;;;3.87;87.11
7760;BME280;3924;48.830;9.262;2022-11-25T08:13:55;98652.94;;;3.90;86.99
7760;BME280;3924;48.830;9.262;2022-11-25T08:16:23;98654.66;;;3.96;87.05
7760;BME280;3924;48.830;9.262;2022-11-25T08:18:53;98655.53;;;4.01;86.89
7760;BME280;3924;48.830;9.262;2022-11-25T08:21:19;98658.03;;;4.08;86.96
7760;BME280;3924;48.830;9.262;2022-11-25T08:23:46;98655.72;;;4.17;87.28
7760;BME280;3924;48.830;9.262;2022-11-25T08:26:20;98659.13;;;4.29;86.86
7760;BME280;3924;48.830;9.262;2022-11-25T08:28:47;98657.69;;;4.43;87.15
7760;BME280;3924;48.830;9.262;2022-11-25T08:31:20;98651.13;;;4.56;86.88
7760;BME280;3924;48.830;9.262;2022-11-25T08:33:48;98648.31;;;4.68;86.45
7760;BME280;3924;48.830;9.262;2022-11-25T08:36:15;98636.06;;;4.77;86.71
7760;BME280;3924;48.830;9.262;2022-11-25T08:38:44;98625.13;;;4.83;86.28
7760;BME280;3924;48.830;9.262;2022-11-25T08:41:13;98621.69;;;4.93;86.40
7760;BME280;3924;48.830;9.262;2022-11-25T08:43:40;98635.72;;;4.95;86.31
7760;BME280;3924;48.830;9.262;2022-11-25T08:46:12;98638.94;;;4.97;86.28
7760;BME280;3924;48.830;9.262;2022-11-25T08:48:40;98639.75;;;4.98;86.45
7760;BME280;3924;48.830;9.262;2022-11-25T08:51:13;98641.44;;;5.04;86.36
7760;BME280;3924;48.830;9.262;2022-11-25T08:53:41;98647.41;;;5.11;86.30
7760;BME280;3924;48.830;9.262;2022-11-25T08:56:07;98638.06;;;5.18;86.01
7760;BME280;3924;48.830;9.262;2022-11-25T08:58:34;98648.91;;;5.29;86.30
7760;BME280;3924;48.830;9.262;2022-11-25T09:01:02;98651.13;;;5.37;86.19
7760;BME280;3924;48.830;9.262;2022-11-25T09:03:34;98650.13;;;5.43;86.15
7760;BME280;3924;48.830;9.262;2022-11-25T09:06:01;98644.75;;;5.43;85.77
7760;BME280;3924;48.830;9.262;2022-11-25T09:08:28;98650.59;;;5.40;85.99
7760;BME280;3924;48.830;9.262;2022-11-25T09:10:57;98660.50;;;5.34;85.98
7760;BME280;3924;48.830;9.262;2022-11-25T09:13:24;98668.28;;;5.31;86.15
7760;BME280;3924;48.830;9.262;2022-11-25T09:15:51;98669.63;;;5.33;86.41
7760;BME280;3924;48.830;9.262;2022-11-25T09:18:18;98664.84;;;5.35;86.37
7760;BME280;3924;48.830;9.262;2022-11-25T09:20:46;98675.94;;;5.44;86.32
7760;BME280;3924;48.830;9.262;2022-11-25T09:23:13;98678.69;;;5.54;85.92
7760;BME280;3924;48.830;9.262;2022-11-25T09:25:39;98668.84;;;5.65;85.88
7760;BME280;3924;48.830;9.262;2022-11-25T09:28:06;98677.28;;;5.79;85.99
7760;BME280;3924;48.830;9.262;2022-11-25T09:30:33;98679.00;;;5.95;85.56
7760;BME280;3924;48.830;9.262;2022-11-25T09:33:00;98681.28;;;6.13;86.05
7760;BME280;3924;48.830;9.262;2022-11-25T09:35:26;98684.88;;;6.29;85.35
7760;BME280;3924;48.830;9.262;2022-11-25T09:37:53;98680.34;;;6.45;85.09
7760;BME280;3924;48.830;9.262;2022-11-25T09:40:53;98688.25;;;6.62;84.95
7760;BME280;3924;48.830;9.262;2022-11-25T09:54:46;98683.47;;;6.79;85.24
7760;BME280;3924;48.830;9.262;2022-11-25T10:00:32;98678.13;;;6.89;85.05
7760;BME280;3924;48.830;9.262;2022-11-25T10:06:24;98682.22;;;7.07;84.78
7760;BME280;3924;48.830;9.262;2022-11-25T10:08:55;98680.34;;;7.18;84.78
7760;BME280;3924;48.830;9.262;2022-11-25T10:11:41;98677.09;;;7.26;84.50
7760;BME280;3924;48.830;9.262;2022-11-25T10:14:31;98675.22;;;7.31;84.32
7760;BME280;3924;48.830;9.262;2022-11-25T10:17:12;98680.91;;;7.35;84.37
7760;BME280;3924;48.830;9.262;2022-11-25T10:20:20;98676.56;;;7.39;84.38
7760;BME280;3924;48.830;9.262;2022-11-25T10:22:51;98685.47;;;7.39;84.02
7760;BME280;3924;48.830;9.262;2022-11-25T10:25:22;98685.47;;;7.39;84.32
7760;BME280;3924;48.830;9.262;2022-11-25T10:28:04;98695.72;;;7.37;84.14
7760;BME280;3924;48.830;9.262;2022-11-25T10:33:22;98695.44;;;7.34;84.07
7760;BME280;3924;48.830;9.262;2022-11-25T10:36:05;98690.06;;;7.34;84.22
7760;BME280;3924;48.830;9.262;2022-11-25T10:41:32;98692.22;;;7.37;84.38
7760;BME280;3924;48.830;9.262;2022-11-25T10:43:58;98684.94;;;7.37;84.04
7760;BME280;3924;48.830;9.262;2022-11-25T10:49:35;98691.44;;;7.52;84.30
7760;BME280;3924;48.830;9.262;2022-11-25T10:52:09;98687.94;;;7.56;84.22
7760;BME280;3924;48.830;9.262;2022-11-25T10:54:37;98698.97;;;7.60;83.84
7760;BME280;3924;48.830;9.262;2022-11-25T10:57:16;98697.09;;;7.60;83.90
7760;BME280;3924;48.830;9.262;2022-11-25T10:59:53;98694.16;;;7.62;84.11
7760;BME280;3924;48.830;9.262;2022-11-25T11:02:29;98693.88;;;7.63;83.92
7760;BME280;3924;48.830;9.262;2022-11-25T11:07:38;98702.78;;;7.69;83.96
7760;BME280;3924;48.830;9.262;2022-11-25T11:12:34;98700.06;;;7.69;84.27
7760;BME280;3924;48.830;9.262;2022-11-25T11:15:17;98701.69;;;7.70;83.59
7760;BME280;3924;48.830;9.262;2022-11-25T11:17:45;98702.22;;;7.67;84.12
7760;BME280;3924;48.830;9.262;2022-11-25T11:20:25;98707.09;;;7.65;84.25
7760;BME280;3924;48.830;9.262;2022-11-25T11:23:00;98720.28;;;7.66;84.42
7760;BME280;3924;48.830;9.262;2022-11-25T11:25:36;98740.56;;;7.69;83.92
7760;BME280;3924;48.830;9.262;2022-11-25T11:28:23;98741.63;;;7.73;83.92
7760;BME280;3924;48.830;9.262;2022-11-25T11:31:06;98739.47;;;7.65;84.05
7760;BME280;3924;48.830;9.262;2022-11-25T11:38:53;98764.25;;;7.47;84.38
7760;BME280;3924;48.830;9.262;2022-11-25T11:41:36;98765.59;;;7.44;84.30
7760;BME280;3924;48.830;9.262;2022-11-25T11:54:52;98769.09;;;7.45;84.54
7760;BME280;3924;48.830;9.262;2022-11-25T11:57:38;98780.44;;;7.47;84.26
7760;BME280;3924;48.830;9.262;2022-11-25T12:00:14;98775.03;;;7.47;84.49
7760;BME280;3924;48.830;9.262;2022-11-25T12:02:58;98773.69;;;7.44;84.46
7760;BME280;3924;48.830;9.262;2022-11-25T12:05:29;98771.50;;;7.41;84.18
7760;BME280;3924;48.830;9.262;2022-11-25T12:08:06;98781.50;;;7.40;84.61
7760;BME280;3924;48.830;9.262;2022-11-25T12:10:42;98777.19;;;7.34;84.38
7760;BME280;3924;48.830;9.262;2022-11-25T12:18:48;98776.06;;;7.25;84.88
7760;BME280;3924;48.830;9.262;2022-11-25T12:21:55;98774.72;;;7.23;85.20
7760;BME280;3924;48.830;9.262;2022-11-25T12:24:43;98776.03;;;7.20;84.97
7760;BME280;3924;48.830;9.262;2022-11-25T12:27:20;98778.72;;;7.20;85.27
7760;BME280;3924;48.830;9.262;2022-11-25T12:29:51;98789.28;;;7.22;85.18
7760;BME280;3924;48.830;9.262;2022-11-25T12:35:17;98785.75;;;7.26;85.10
7760;BME280;3924;48.830;9.262;2022-11-25T12:37:51;98797.13;;;7.28;85.70
7760;BME280;3924;48.830;9.262;2022-11-25T12:40:32;98796.31;;;7.28;85.39
7760;BME280;3924;48.830;9.262;2022-11-25T12:46:10;98811.13;;;7.25;85.79
7760;BME280;3924;48.830;9.262;2022-11-25T12:48:40;98799.25;;;7.21;85.14
7760;BME280;3924;48.830;9.262;2022-11-25T12:51:26;98800.31;;;7.20;85.71
7760;BME280;3924;48.830;9.262;2022-11-25T13:06:15;98835.59;;;7.13;86.74
7760;BME280;3924;48.830;9.262;2022-11-25T13:09:13;98835.31;;;7.10;85.56
7760;BME280;3924;48.830;9.262;2022-11-25T13:15:02;98844.50;;;7.09;85.98
7760;BME280;3924;48.830;9.262;2022-11-25T13:17:42;98845.56;;;7.08;86.58
7760;BME280;3924;48.830;9.262;2022-11-25T13:25:34;98856.34;;;7.13;86.52
7760;BME280;3924;48.830;9.262;2022-11-25T13:28:03;98863.13;;;7.16;86.49
7760;BME280;3924;48.830;9.262;2022-11-25T13:30:34;98865.84;;;7.21;86.33
7760;BME280;3924;48.830;9.262;2022-11-25T13:35:49;98867.22;;;7.28;86.14
7760;BME280;3924;48.830;9.262;2022-11-25T13:41:00;98872.63;;;7.33;86.33
7760;BME280;3924;48.830;9.262;2022-11-25T13:43:27;98878.00;;;7.33;86.37
7760;BME280;3924;48.830;9.262;2022-11-25T13:45:54;98876.41;;;7.32;86.94
7760;BME280;3924;48.830;9.262;2022-11-25T13:48:24;98882.59;;;7.33;86.89
7760;BME280;3924;48.830;9.262;2022-11-25T13:51:21;98874.78;;;7.31;86.31
7760;BME280;3924;48.830;9.262;2022-11-25T13:53:50;98886.66;;;7.35;86.86
7760;BME280;3924;48.830;9.262;2022-11-25T13:56:27;98892.06;;;7.40;87.19
7760;BME280;3924;48.830;9.262;2022-11-25T14:04:09;98898.06;;;7.53;87.29
7760;BME280;3924;48.830;9.262;2022-11-25T14:06:48;98906.19;;;7.58;86.93
7760;BME280;3924;48.830;9.262;2022-11-25T14:23:23;98916.22;;;7.78;86.80
7760;BME280;3924;48.830;9.262;2022-11-25T14:26:02;98917.03;;;7.78;87.28
7760;BME280;3924;48.830;9.262;2022-11-25T14:31:22;98924.88;;;7.80;87.53
7760;BME280;3924;48.830;9.262;2022-11-25T14:33:57;98927.56;;;7.80;87.06
7760;BME280;3924;48.830;9.262;2022-11-25T14:36:33;98933.78;;;7.80;87.20
7760;BME280;3924;48.830;9.262;2022-11-25T14:39:04;98927.28;;;7.81;87.22
7760;BME280;3924;48.830;9.262;2022-11-25T14:41:35;98927.28;;;7.81;86.74
7760;BME280;3924;48.830;9.262;2022-11-25T14:44:08;98938.09;;;7.81;87.65
7760;BME280;3924;48.830;9.262;2022-11-25T14:49:18;98941.34;;;7.83;87.71
7760;BME280;3924;48.830;9.262;2022-11-25T14:52:04;98937.03;;;7.82;87.36
7760;BME280;3924;48.830;9.262;2022-11-25T14:54:31;98938.09;;;7.81;87.59
7760;BME280;3924;48.830;9.262;2022-11-25T14:56:58;98946.19;;;7.81;87.51
7760;BME280;3924;48.830;9.262;2022-11-25T14:59:25;98945.13;;;7.82;87.56
7760;BME280;3924;48.830;9.262;2022-11-25T15:01:54;98943.50;;;7.81;88.15
7760;BME280;3924;48.830;9.262;2022-11-25T15:04:23;98959.69;;;7.81;87.28
7760;BME280;3924;48.830;9.262;2022-11-25T15:06:52;98958.63;;;7.82;87.76
7760;BME280;3924;48.830;9.262;2022-11-25T15:09:23;98962.94;;;7.83;87.82
7760;BME280;3924;48.830;9.262;2022-11-25T15:11:59;98968.88;;;7.85;87.73
7760;BME280;3924;48.830;9.262;2022-11-25T15:14:29;98964.84;;;7.83;87.65
7760;BME280;3924;48.830;9.262;2022-11-25T15:16:57;98960.25;;;7.83;87.93
7760;BME280;3924;48.830;9.262;2022-11-25T15:19:29;98967.53;;;7.83;87.88
7760;BME280;3924;48.830;9.262;2022-11-25T15:22:04;98974.28;;;7.85;88.07
7760;BME280;3924;48.830;9.262;2022-11-25T15:24:52;98973.22;;;7.91;87.52
7760;BME280;3924;48.830;9.262;2022-11-25T15:27:45;98979.97;;;7.94;87.49
7760;BME280;3924;48.830;9.262;2022-11-25T15:30:23;98981.09;;;7.98;87.87
7760;BME280;3924;48.830;9.262;2022-11-25T15:32:51;98996.75;;;8.01;87.76
7760;BME280;3924;48.830;9.262;2022-11-25T15:35:24;98992.41;;;8.00;87.14
7760;BME280;3924;48.830;9.262;2022-11-25T15:37:51;99000.25;;;7.97;87.43
7760;BME280;3924;48.830;9.262;2022-11-25T15:40:31;99000.75;;;7.93;87.77
7760;BME280;3924;48.830;9.262;2022-11-25T15:42:59;99007.78;;;7.89;87.85